createdAt,value
2018-10-06T00:00:05.798Z,6.20
2018-10-06T00:02:35.163Z,6.20
2018-10-06T00:05:03.679Z,6.20
2018-10-06T00:07:32.192Z,6.30
2018-10-06T00:10:00.646Z,6.30
2018-10-06T00:12:29.395Z,6.20
2018-10-06T00:14:58.403Z,6.20
2018-10-06T00:17:27.174Z,6.20
2018-10-06T00:19:56.561Z,6.20
2018-10-06T00:22:25.262Z,6.20
2018-10-06T00:24:53.986Z,6.20
2018-10-06T00:27:22.531Z,6.20
2018-10-06T00:29:51.037Z,6.10
2018-10-06T00:32:19.511Z,6.10
2018-10-06T00:34:48.087Z,6.10
2018-10-06T00:37:16.574Z,6.10
2018-10-06T00:39:45.103Z,6.10
2018-10-06T00:42:13.587Z,6.10
2018-10-06T00:44:42.131Z,6.00
2018-10-06T00:47:10.620Z,6.00
2018-10-06T00:49:39.075Z,6.00
2018-10-06T00:52:07.542Z,6.00
2018-10-06T00:54:36.051Z,6.10
2018-10-06T00:57:04.531Z,6.20
2018-10-06T00:59:33.054Z,6.20
2018-10-06T01:02:01.538Z,6.20
2018-10-06T01:04:30.056Z,6.10
2018-10-06T01:06:58.526Z,6.00
2018-10-06T01:09:26.981Z,6.10
2018-10-06T01:11:55.467Z,6.00
2018-10-06T01:14:23.918Z,6.00
2018-10-06T01:16:52.385Z,6.00
2018-10-06T01:19:20.851Z,6.00
2018-10-06T01:21:49.318Z,6.00
2018-10-06T01:24:17.806Z,6.00
2018-10-06T01:26:46.291Z,6.00
2018-10-06T01:29:14.764Z,6.00
2018-10-06T01:31:43.235Z,6.00
2018-10-06T01:34:11.722Z,5.90
2018-10-06T01:36:40.259Z,5.90
2018-10-06T01:39:08.718Z,6.00
2018-10-06T01:41:37.158Z,5.90
2018-10-06T01:44:05.626Z,5.90
2018-10-06T01:46:34.091Z,5.90
2018-10-06T01:49:02.551Z,5.90
2018-10-06T01:51:31.032Z,5.90
2018-10-06T01:53:59.493Z,6.00
2018-10-06T01:56:27.954Z,6.00
2018-10-06T01:58:56.435Z,6.10
2018-10-06T02:01:24.903Z,6.00
2018-10-06T02:03:53.430Z,6.00
2018-10-06T02:06:21.897Z,5.90
2018-10-06T02:08:50.363Z,5.90
2018-10-06T02:11:18.830Z,5.90
2018-10-06T02:13:47.291Z,5.90
2018-10-06T02:16:15.770Z,5.80
2018-10-06T02:18:44.230Z,5.90
2018-10-06T02:21:12.719Z,5.90
2018-10-06T02:23:41.219Z,5.90
2018-10-06T02:26:09.679Z,5.90
2018-10-06T02:28:38.130Z,5.90
2018-10-06T02:31:06.683Z,5.90
2018-10-06T02:33:35.155Z,5.90
2018-10-06T02:36:03.640Z,5.90
2018-10-06T02:38:32.156Z,5.80
2018-10-06T02:41:00.710Z,5.80
2018-10-06T02:43:29.171Z,5.90
2018-10-06T02:45:57.631Z,5.80
2018-10-06T02:48:26.087Z,5.80
2018-10-06T02:50:54.569Z,5.70
2018-10-06T02:53:23.014Z,5.70
2018-10-06T02:55:51.478Z,5.80
2018-10-06T02:58:19.931Z,5.90
2018-10-06T03:00:48.383Z,5.80
2018-10-06T03:03:16.840Z,6.00
2018-10-06T03:05:45.307Z,6.00
2018-10-06T03:08:13.799Z,6.00
2018-10-06T03:10:42.257Z,6.00
2018-10-06T03:13:10.890Z,6.20
2018-10-06T03:15:39.365Z,6.20
2018-10-06T03:18:07.823Z,6.10
2018-10-06T03:20:36.273Z,6.10
2018-10-06T03:23:04.743Z,6.10
2018-10-06T03:25:33.222Z,6.10
2018-10-06T03:28:01.695Z,6.10
2018-10-06T03:30:30.191Z,6.20
2018-10-06T03:32:58.644Z,6.30
2018-10-06T03:35:27.102Z,6.20
2018-10-06T03:37:55.555Z,6.20
2018-10-06T03:40:24.055Z,6.10
2018-10-06T03:42:52.502Z,6.00
2018-10-06T03:45:20.982Z,5.90
2018-10-06T03:47:49.452Z,5.90
2018-10-06T03:50:17.915Z,5.80
2018-10-06T03:52:57.704Z,5.80
2018-10-06T03:55:26.155Z,5.80
2018-10-06T03:57:54.628Z,5.80
2018-10-06T04:00:23.095Z,5.70
2018-10-06T04:02:51.564Z,5.70
2018-10-06T04:05:20.038Z,5.70
2018-10-06T04:07:48.534Z,5.60
2018-10-06T04:10:16.998Z,5.70
2018-10-06T04:12:45.469Z,5.80
2018-10-06T04:15:14.107Z,5.90
2018-10-06T04:17:42.588Z,5.90
2018-10-06T04:20:11.106Z,5.80
2018-10-06T04:22:39.558Z,5.80
2018-10-06T04:25:08.078Z,5.80
2018-10-06T04:27:36.526Z,5.70
2018-10-06T04:30:05.499Z,5.80
2018-10-06T04:32:33.946Z,5.70
2018-10-06T04:35:02.730Z,5.60
2018-10-06T04:37:31.213Z,5.60
2018-10-06T04:39:59.683Z,5.60
2018-10-06T04:42:28.351Z,5.60
2018-10-06T04:44:56.811Z,5.60
2018-10-06T04:47:25.284Z,5.60
2018-10-06T04:49:53.751Z,5.60
2018-10-06T04:52:22.202Z,5.60
2018-10-06T04:54:50.667Z,5.50
2018-10-06T04:57:19.174Z,5.50
2018-10-06T04:59:47.649Z,5.40
2018-10-06T05:02:16.143Z,5.50
2018-10-06T05:04:44.618Z,5.50
2018-10-06T05:07:13.074Z,5.50
2018-10-06T05:09:41.536Z,5.60
2018-10-06T05:12:10.019Z,5.60
2018-10-06T05:14:38.478Z,5.60
2018-10-06T05:17:06.960Z,5.70
2018-10-06T05:19:35.414Z,5.80
2018-10-06T05:22:03.922Z,5.80
2018-10-06T05:24:32.425Z,5.60
2018-10-06T05:27:01.007Z,5.60
2018-10-06T05:29:29.459Z,5.60
2018-10-06T05:31:57.911Z,5.70
2018-10-06T05:34:26.391Z,5.70
2018-10-06T05:36:54.886Z,5.80
2018-10-06T05:39:23.340Z,5.90
2018-10-06T05:41:51.802Z,5.90
2018-10-06T05:44:20.279Z,5.90
2018-10-06T05:46:48.742Z,5.90
2018-10-06T05:49:17.201Z,5.90
2018-10-06T05:51:45.674Z,5.90
2018-10-06T05:54:14.134Z,5.90
2018-10-06T05:56:42.598Z,6.00
2018-10-06T05:59:11.156Z,6.00
2018-10-06T06:01:39.623Z,6.10
2018-10-06T06:04:08.091Z,6.20
2018-10-06T06:06:36.579Z,6.20
2018-10-06T06:09:06.507Z,6.30
2018-10-06T06:11:34.963Z,6.40
2018-10-06T06:14:03.472Z,6.50
2018-10-06T06:16:31.984Z,6.60
2018-10-06T06:19:00.486Z,6.70
2018-10-06T06:21:29.142Z,6.90
2018-10-06T06:23:57.727Z,7.00
2018-10-06T06:26:26.110Z,7.20
2018-10-06T06:28:54.587Z,7.30
2018-10-06T06:31:23.103Z,7.40
2018-10-06T06:33:51.539Z,7.40
2018-10-06T06:36:19.986Z,7.50
2018-10-06T06:38:48.710Z,7.60
2018-10-06T06:41:17.173Z,7.60
2018-10-06T06:43:45.840Z,7.70
2018-10-06T06:46:14.315Z,7.70
2018-10-06T06:48:42.791Z,7.80
2018-10-06T06:51:11.414Z,7.80
2018-10-06T06:53:39.995Z,7.90
2018-10-06T06:56:08.483Z,8.00
2018-10-06T06:58:36.940Z,8.10
2018-10-06T07:01:05.411Z,8.20
2018-10-06T07:03:33.910Z,8.30
2018-10-06T07:06:02.377Z,8.40
2018-10-06T07:08:30.950Z,8.50
2018-10-06T07:10:59.450Z,8.60
2018-10-06T07:13:27.903Z,8.70
2018-10-06T07:15:56.386Z,8.90
2018-10-06T07:18:24.915Z,9.00
2018-10-06T07:20:53.330Z,9.10
2018-10-06T07:23:21.774Z,9.20
2018-10-06T07:25:50.245Z,9.30
2018-10-06T07:28:18.768Z,9.40
2018-10-06T07:30:47.196Z,9.60
2018-10-06T07:33:15.671Z,9.70
2018-10-06T07:35:44.263Z,9.80
2018-10-06T07:38:12.730Z,9.90
2018-10-06T07:40:41.179Z,10.00
2018-10-06T07:43:09.656Z,10.20
2018-10-06T07:45:38.133Z,10.20
2018-10-06T07:48:06.616Z,10.40
2018-10-06T07:50:35.077Z,10.50
2018-10-06T07:53:03.635Z,10.70
2018-10-06T07:55:32.151Z,10.80
2018-10-06T07:58:00.642Z,10.90
2018-10-06T08:00:29.410Z,11.00
2018-10-06T08:02:57.943Z,11.10
2018-10-06T08:05:26.416Z,11.30
2018-10-06T08:07:54.892Z,11.30
2018-10-06T08:10:23.365Z,11.40
2018-10-06T08:12:51.867Z,11.50
2018-10-06T08:15:20.354Z,11.60
2018-10-06T08:17:48.878Z,11.70
2018-10-06T08:20:17.410Z,11.80
2018-10-06T08:22:45.887Z,12.00
2018-10-06T08:25:14.354Z,12.00
2018-10-06T08:27:42.843Z,12.20
2018-10-06T08:30:11.436Z,12.30
2018-10-06T08:32:39.899Z,12.40
2018-10-06T08:35:08.492Z,12.50
2018-10-06T08:37:36.958Z,12.60
2018-10-06T08:40:05.558Z,12.80
2018-10-06T08:42:34.044Z,12.80
2018-10-06T08:45:02.705Z,12.90
2018-10-06T08:47:31.551Z,13.00
2018-10-06T08:50:00.016Z,13.10
2018-10-06T08:52:28.505Z,13.20
2018-10-06T08:54:57.006Z,13.40
2018-10-06T08:57:25.462Z,13.40
2018-10-06T08:59:53.948Z,13.50
2018-10-06T09:02:22.447Z,13.60
2018-10-06T09:04:50.924Z,13.70
2018-10-06T09:07:19.396Z,13.60
2018-10-06T09:09:47.863Z,13.80
2018-10-06T09:12:16.425Z,13.80
2018-10-06T09:14:44.894Z,13.90
2018-10-06T09:17:13.350Z,14.00
2018-10-06T09:19:41.822Z,14.00
2018-10-06T09:22:10.287Z,14.10
2018-10-06T09:24:38.749Z,14.20
2018-10-06T09:27:07.796Z,14.20
2018-10-06T09:29:36.286Z,14.20
2018-10-06T09:32:04.795Z,14.30
2018-10-06T09:34:33.282Z,14.40
2018-10-06T09:37:01.830Z,14.50
2018-10-06T09:39:30.286Z,14.50
2018-10-06T09:41:58.820Z,14.60
2018-10-06T09:44:27.338Z,14.80
2018-10-06T09:46:55.821Z,14.90
2018-10-06T09:49:24.282Z,14.90
2018-10-06T09:51:52.754Z,15.00
2018-10-06T09:54:21.215Z,15.10
2018-10-06T09:56:49.662Z,15.10
2018-10-06T09:59:18.121Z,15.00
2018-10-06T10:01:51.938Z,15.10
2018-10-06T10:04:20.391Z,15.30
2018-10-06T10:06:48.854Z,15.30
2018-10-06T10:09:17.321Z,15.40
2018-10-06T10:11:45.782Z,15.50
2018-10-06T10:14:14.252Z,15.50
2018-10-06T10:16:42.727Z,15.50
2018-10-06T10:19:11.183Z,15.60
2018-10-06T10:21:39.660Z,15.70
2018-10-06T10:24:08.145Z,15.80
2018-10-06T10:26:36.618Z,15.90
2018-10-06T10:29:05.123Z,15.90
2018-10-06T10:31:33.586Z,15.90
2018-10-06T10:34:02.050Z,16.00
2018-10-06T10:36:30.525Z,16.10
2018-10-06T10:38:58.987Z,16.20
2018-10-06T10:41:27.442Z,16.20
2018-10-06T10:43:55.929Z,16.20
2018-10-06T10:46:24.386Z,16.30
2018-10-06T10:48:52.855Z,16.50
2018-10-06T10:51:21.307Z,16.50
2018-10-06T10:53:49.774Z,16.60
2018-10-06T10:56:18.267Z,16.70
2018-10-06T10:58:46.739Z,16.90
2018-10-06T11:01:21.925Z,17.10
2018-10-06T11:03:50.459Z,17.20
2018-10-06T11:06:18.891Z,17.30
2018-10-06T11:08:47.481Z,17.30
2018-10-06T11:11:15.945Z,17.40
2018-10-06T11:13:44.403Z,17.40
2018-10-06T11:16:12.863Z,17.40
2018-10-06T11:18:41.314Z,17.60
2018-10-06T11:21:09.801Z,17.70
2018-10-06T11:23:38.283Z,17.80
2018-10-06T11:26:06.776Z,17.90
2018-10-06T11:28:35.223Z,17.80
2018-10-06T11:31:03.690Z,17.80
2018-10-06T11:33:32.164Z,17.90
2018-10-06T11:36:00.619Z,17.90
2018-10-06T11:38:29.082Z,17.90
2018-10-06T11:40:57.538Z,17.90
2018-10-06T11:43:26.052Z,17.90
2018-10-06T11:45:54.506Z,17.80
2018-10-06T11:48:22.959Z,17.70
2018-10-06T11:50:51.431Z,17.60
2018-10-06T11:53:19.886Z,17.70
2018-10-06T11:55:48.345Z,17.60
2018-10-06T11:58:16.875Z,17.70
2018-10-06T12:00:45.422Z,17.60
2018-10-06T12:03:13.813Z,17.60
2018-10-06T12:05:42.337Z,17.50
2018-10-06T12:08:10.775Z,17.40
2018-10-06T12:10:39.255Z,17.40
2018-10-06T12:13:07.731Z,17.40
2018-10-06T12:15:36.190Z,17.50
2018-10-06T12:18:04.835Z,17.40
2018-10-06T12:20:33.843Z,17.50
2018-10-06T12:23:02.321Z,17.50
2018-10-06T12:25:30.794Z,17.50
2018-10-06T12:27:59.242Z,17.50
2018-10-06T12:30:27.819Z,17.60
2018-10-06T12:32:56.267Z,17.60
2018-10-06T12:35:24.793Z,17.80
2018-10-06T12:37:53.214Z,17.80
2018-10-06T12:40:21.666Z,17.80
2018-10-06T12:42:50.134Z,17.90
2018-10-06T12:45:18.603Z,18.10
2018-10-06T12:47:47.063Z,18.30
2018-10-06T12:50:15.542Z,18.60
2018-10-06T12:52:44.019Z,18.90
2018-10-06T12:55:12.489Z,19.10
2018-10-06T12:57:40.946Z,19.10
2018-10-06T13:00:09.618Z,19.20
2018-10-06T13:02:38.080Z,19.50
2018-10-06T13:05:06.848Z,19.40
2018-10-06T13:07:35.414Z,19.60
2018-10-06T13:10:04.913Z,19.50
2018-10-06T13:12:33.374Z,19.70
2018-10-06T13:15:01.834Z,19.80
2018-10-06T13:17:30.499Z,19.50
2018-10-06T13:19:58.987Z,19.50
2018-10-06T13:22:27.439Z,19.40
2018-10-06T13:24:55.947Z,19.20
2018-10-06T13:27:24.416Z,19.30
2018-10-06T13:29:52.910Z,19.20
2018-10-06T13:32:21.371Z,19.10
2018-10-06T13:34:49.842Z,19.10
2018-10-06T13:37:18.313Z,19.10
2018-10-06T13:39:46.817Z,18.90
2018-10-06T13:42:15.387Z,18.90
2018-10-06T13:44:43.886Z,18.70
2018-10-06T13:47:12.343Z,18.60
2018-10-06T13:49:40.806Z,18.60
2018-10-06T13:52:09.310Z,18.50
2018-10-06T13:54:37.780Z,18.50
2018-10-06T13:57:06.347Z,18.50
2018-10-06T13:59:34.852Z,18.70
2018-10-06T14:02:03.391Z,18.90
2018-10-06T14:04:32.095Z,19.00
2018-10-06T14:07:00.554Z,19.10
2018-10-06T14:09:29.015Z,19.20
2018-10-06T14:11:57.482Z,19.30
2018-10-06T14:14:25.962Z,19.40
2018-10-06T14:16:54.422Z,19.50
2018-10-06T14:19:22.880Z,19.60
2018-10-06T14:21:51.334Z,19.50
2018-10-06T14:24:19.866Z,19.50
2018-10-06T14:26:48.390Z,19.50
2018-10-06T14:29:16.870Z,19.50
2018-10-06T14:31:45.341Z,19.50
2018-10-06T14:34:13.866Z,19.40
2018-10-06T14:36:42.402Z,19.30
2018-10-06T14:39:11.535Z,19.20
2018-10-06T14:41:40.035Z,19.20
2018-10-06T14:44:08.538Z,19.10
2018-10-06T14:46:37.007Z,19.10
2018-10-06T14:49:05.519Z,19.00
2018-10-06T14:51:33.994Z,18.80
2018-10-06T14:54:02.459Z,18.70
2018-10-06T14:56:30.931Z,18.60
2018-10-06T14:58:59.382Z,18.40
2018-10-06T15:01:27.846Z,18.20
2018-10-06T15:03:56.303Z,18.10
2018-10-06T15:06:24.767Z,17.90
2018-10-06T15:08:53.246Z,17.80
2018-10-06T15:11:21.714Z,17.70
2018-10-06T15:13:50.198Z,17.60
2018-10-06T15:16:18.646Z,17.40
2018-10-06T15:18:47.107Z,17.30
2018-10-06T15:21:15.564Z,17.10
2018-10-06T15:23:44.015Z,17.10
2018-10-06T15:26:12.525Z,17.00
2018-10-06T15:28:43.225Z,16.90
2018-10-06T15:31:11.702Z,16.80
2018-10-06T15:33:40.171Z,16.70
2018-10-06T15:36:08.674Z,16.60
2018-10-06T15:38:37.482Z,16.60
2018-10-06T15:41:05.960Z,16.60
2018-10-06T15:43:34.431Z,16.50
2018-10-06T15:46:02.918Z,16.50
2018-10-06T15:48:31.419Z,16.50
2018-10-06T15:50:59.937Z,16.40
2018-10-06T15:53:28.362Z,16.30
2018-10-06T15:55:56.827Z,16.20
2018-10-06T15:58:25.298Z,16.10
2018-10-06T16:00:53.810Z,16.00
2018-10-06T16:03:22.272Z,15.90
2018-10-06T16:05:50.741Z,15.80
2018-10-06T16:08:19.217Z,15.70
2018-10-06T16:10:47.671Z,15.70
2018-10-06T16:13:16.127Z,15.60
2018-10-06T16:15:44.594Z,15.60
2018-10-06T16:18:13.090Z,15.50
2018-10-06T16:20:41.596Z,15.50
2018-10-06T16:23:10.060Z,15.40
2018-10-06T16:25:38.523Z,15.40
2018-10-06T16:28:06.990Z,15.20
2018-10-06T16:30:35.460Z,15.10
2018-10-06T16:33:03.947Z,15.00
2018-10-06T16:35:32.443Z,15.00
2018-10-06T16:38:00.911Z,14.90
2018-10-06T16:40:29.371Z,14.90
2018-10-06T16:42:57.823Z,14.80
2018-10-06T16:45:26.295Z,14.70
2018-10-06T16:47:54.766Z,14.70
2018-10-06T16:50:23.266Z,14.60
2018-10-06T16:52:51.723Z,14.60
2018-10-06T16:55:20.182Z,14.50
2018-10-06T16:57:48.646Z,14.50
2018-10-06T17:00:17.163Z,14.40
2018-10-06T17:02:45.611Z,14.40
2018-10-06T17:05:14.103Z,14.30
2018-10-06T17:07:42.579Z,14.30
2018-10-06T17:10:11.115Z,14.30
2018-10-06T17:12:39.583Z,14.40
2018-10-06T17:15:08.503Z,14.40
2018-10-06T17:17:36.979Z,14.40
2018-10-06T17:20:05.530Z,14.30
2018-10-06T17:22:34.003Z,14.20
2018-10-06T17:25:02.676Z,14.30
2018-10-06T17:27:31.154Z,14.20
2018-10-06T17:29:59.628Z,14.20
2018-10-06T17:32:28.127Z,14.20
2018-10-06T17:34:56.597Z,14.10
2018-10-06T17:37:25.083Z,14.10
2018-10-06T17:39:53.559Z,14.00
2018-10-06T17:42:22.039Z,14.00
2018-10-06T17:44:50.548Z,14.00
2018-10-06T17:47:19.043Z,14.10
2018-10-06T17:49:47.580Z,14.10
2018-10-06T17:52:16.039Z,14.10
2018-10-06T17:54:44.499Z,14.10
2018-10-06T17:57:12.974Z,14.10
2018-10-06T17:59:41.451Z,14.10
2018-10-06T18:02:09.935Z,14.10
2018-10-06T18:04:38.398Z,14.00
2018-10-06T18:07:06.878Z,13.90
2018-10-06T18:09:35.370Z,13.80
2018-10-06T18:12:03.870Z,13.70
2018-10-06T18:14:32.397Z,13.70
2018-10-06T18:17:00.861Z,13.60
2018-10-06T18:19:29.425Z,13.50
2018-10-06T18:21:58.015Z,13.50
2018-10-06T18:24:26.479Z,13.50
2018-10-06T18:26:54.941Z,13.50
2018-10-06T18:29:23.478Z,13.40
2018-10-06T18:31:51.906Z,13.40
2018-10-06T18:34:20.374Z,13.40
2018-10-06T18:36:48.948Z,13.40
2018-10-06T18:39:17.322Z,13.40
2018-10-06T18:41:45.782Z,13.40
2018-10-06T18:44:14.255Z,13.40
2018-10-06T18:46:42.740Z,13.40
2018-10-06T18:49:11.417Z,13.40
2018-10-06T18:51:39.934Z,13.30
2018-10-06T18:54:08.455Z,13.40
2018-10-06T18:56:37.000Z,13.30
2018-10-06T18:59:05.470Z,13.30
2018-10-06T19:01:33.963Z,13.30
2018-10-06T19:04:02.574Z,13.30
2018-10-06T19:06:30.993Z,13.30
2018-10-06T19:08:59.475Z,13.30
2018-10-06T19:11:27.975Z,13.30
2018-10-06T19:13:56.518Z,13.30
2018-10-06T19:16:25.020Z,13.30
2018-10-06T19:18:53.475Z,13.30
2018-10-06T19:21:21.927Z,13.30
2018-10-06T19:23:50.399Z,13.30
2018-10-06T19:26:18.854Z,13.20
2018-10-06T19:28:47.323Z,13.20
2018-10-06T19:31:15.839Z,13.20
2018-10-06T19:33:44.315Z,13.10
2018-10-06T19:36:12.869Z,13.10
2018-10-06T19:38:41.335Z,13.10
2018-10-06T19:41:09.817Z,13.10
2018-10-06T19:43:38.311Z,13.10
2018-10-06T19:46:06.902Z,13.10
2018-10-06T19:48:35.389Z,13.10
2018-10-06T19:51:03.920Z,13.10
2018-10-06T19:53:32.419Z,13.10
2018-10-06T19:56:00.891Z,13.10
2018-10-06T19:58:29.474Z,13.10
2018-10-06T20:00:57.887Z,13.20
2018-10-06T20:03:26.349Z,13.20
2018-10-06T20:05:54.822Z,13.20
2018-10-06T20:08:23.297Z,13.20
2018-10-06T20:10:51.776Z,13.30
2018-10-06T20:13:20.243Z,13.30
2018-10-06T20:15:48.709Z,13.30
2018-10-06T20:18:17.205Z,13.30
2018-10-06T20:20:45.670Z,13.30
2018-10-06T20:23:14.246Z,13.30
2018-10-06T20:25:42.714Z,13.30
2018-10-06T20:28:11.174Z,13.20
2018-10-06T20:30:39.639Z,13.10
2018-10-06T20:33:08.139Z,13.10
2018-10-06T20:35:36.599Z,13.00
2018-10-06T20:38:05.346Z,12.90
2018-10-06T20:40:33.879Z,12.90
2018-10-06T20:43:02.299Z,12.80
2018-10-06T20:45:30.790Z,12.80
2018-10-06T20:47:59.270Z,12.80
2018-10-06T20:50:27.790Z,12.80
2018-10-06T20:52:57.119Z,12.80
2018-10-06T20:55:25.631Z,12.90
2018-10-06T20:57:54.094Z,12.90
2018-10-06T21:00:22.566Z,12.90
2018-10-06T21:02:51.155Z,12.90
2018-10-06T21:05:19.639Z,12.90
2018-10-06T21:07:48.106Z,12.90
2018-10-06T21:10:16.575Z,12.80
2018-10-06T21:12:45.035Z,12.80
2018-10-06T21:15:13.515Z,12.70
2018-10-06T21:17:41.988Z,12.60
2018-10-06T21:20:10.465Z,12.60
2018-10-06T21:22:38.934Z,12.50
2018-10-06T21:25:07.427Z,12.50
2018-10-06T21:27:35.901Z,12.50
2018-10-06T21:30:04.430Z,12.40
2018-10-06T21:32:32.956Z,12.40
2018-10-06T21:35:01.427Z,12.40
2018-10-06T21:37:29.935Z,12.40
2018-10-06T21:39:58.407Z,12.40
2018-10-06T21:42:26.875Z,12.40
2018-10-06T21:44:55.343Z,12.40
2018-10-06T21:47:23.817Z,12.50
2018-10-06T21:49:52.292Z,12.50
2018-10-06T21:52:20.759Z,12.50
2018-10-06T21:54:49.233Z,12.50
2018-10-06T21:57:17.693Z,12.50
2018-10-06T21:59:46.174Z,12.50
2018-10-06T22:02:14.638Z,12.40
2018-10-06T22:04:43.113Z,12.40
2018-10-06T22:07:11.579Z,12.40
2018-10-06T22:09:40.067Z,12.40
2018-10-06T22:12:08.569Z,12.30
2018-10-06T22:14:37.038Z,12.40
2018-10-06T22:17:05.666Z,12.40
2018-10-06T22:19:34.150Z,12.30
2018-10-06T22:22:02.622Z,12.20
2018-10-06T22:24:31.155Z,12.20
2018-10-06T22:26:59.690Z,12.20
2018-10-06T22:29:28.172Z,12.10
2018-10-06T22:31:56.634Z,12.10
2018-10-06T22:34:25.108Z,12.10
2018-10-06T22:36:53.576Z,12.10
2018-10-06T22:39:22.127Z,12.10
2018-10-06T22:41:50.743Z,12.10
2018-10-06T22:44:19.208Z,12.20
2018-10-06T22:46:47.694Z,12.20
2018-10-06T22:49:16.155Z,12.30
2018-10-06T22:51:44.654Z,12.40
2018-10-06T22:54:13.154Z,12.40
2018-10-06T22:56:41.622Z,12.40
2018-10-06T22:59:10.131Z,12.50
2018-10-06T23:01:38.643Z,12.50
2018-10-06T23:04:07.196Z,12.50
2018-10-06T23:06:35.659Z,12.50
2018-10-06T23:09:05.938Z,12.50
2018-10-06T23:11:34.403Z,12.50
2018-10-06T23:14:02.923Z,12.40
2018-10-06T23:16:31.414Z,12.40
2018-10-06T23:18:59.882Z,12.30
2018-10-06T23:21:28.352Z,12.30
2018-10-06T23:23:56.968Z,12.30
2018-10-06T23:26:25.480Z,12.20
2018-10-06T23:28:53.938Z,12.20
2018-10-06T23:31:22.448Z,12.20
2018-10-06T23:33:50.987Z,12.20
2018-10-06T23:36:19.691Z,12.20
2018-10-06T23:38:48.162Z,12.10
2018-10-06T23:41:16.639Z,12.20
2018-10-06T23:43:45.134Z,12.10
2018-10-06T23:46:13.611Z,12.10
2018-10-06T23:48:42.078Z,12.10
2018-10-06T23:51:10.550Z,12.10
2018-10-06T23:53:39.024Z,12.20
2018-10-06T23:56:07.502Z,12.10
2018-10-06T23:58:35.983Z,12.20
